This is the latest recevied weather packets stored in our database for station/object KG4ZVW. If no packets are shown the sender has not sent any weather packets the latest 1 day(s).
| Time | Temp. | Humidity | Pressure | Rain* | Wind** | Luminosity | Snow |
|---|---|---|---|---|---|---|---|
| 1778077711 | 28.33° C | 69% | 1016.8 hPa | 0 mm | - | 647 W/m² | - |
| 1778077120 | 27.78° C | 70% | 1016.8 hPa | 0 mm | - | 666 W/m² | - |
| 1778076206 | 27.78° C | 71% | 1016.7 hPa | 0 mm | - | 489 W/m² | - |
| 1778075617 | 27.78° C | 72% | 1016.6 hPa | 0 mm | - | 496 W/m² | - |
| 1778075313 | 27.78° C | 73% | 1016.6 hPa | 0 mm | - | 519 W/m² | - |
| 1778074720 | 27.22° C | 74% | 1016.5 hPa | 0 mm | - | 496 W/m² | - |
| 1778073803 | 26.67° C | 76% | 1016.3 hPa | 0 mm | - | 411 W/m² | - |
| 1778072610 | 26.11° C | 78% | 1016.1 hPa | 0 mm | - | 308 W/m² | - |
| 1778072007 | 25.56° C | 79% | 1016.1 hPa | 0 mm | - | 325 W/m² | - |
| 1778071706 | 25° C | 80% | 1016.1 hPa | 0 mm | - | 338 W/m² | - |
| 1778069902 | 22.78° C | 90% | 1016.1 hPa | 0 mm | - | 313 W/m² | - |
| 1778069618 | 22.22° C | 89% | 1016.1 hPa | 0 mm | - | 290 W/m² | - |
| 1778069313 | 22.22° C | 90% | 1016.1 hPa | 0 mm | - | 267 W/m² | - |
| 1778069008 | 21.67° C | 90% | 1016.1 hPa | 0 mm | - | 241 W/m² | - |
| 1778067506 | 20.56° C | 88% | 1015.7 hPa | 0 mm | - | 121 W/m² | - |
| 1778066918 | 20.56° C | 88% | 1015.7 hPa | 0 mm | - | 77 W/m² | - |
| 1778066312 | 20.56° C | 88% | 1015.6 hPa | 0 mm | - | 54 W/m² | - |
| 1778065704 | 20° C | 87% | 1015.6 hPa | 0 mm | - | 42 W/m² | - |
| 1778065418 | 20° C | 86% | 1015.6 hPa | 0 mm | - | 37 W/m² | - |
| 1778064506 | 20° C | 86% | 1015.5 hPa | 0 mm | - | 12 W/m² | - |
| 1778064221 | 20° C | 85% | 1015.5 hPa | 0 mm | - | 7 W/m² | - |
| 1778063304 | 20° C | 85% | 1015.3 hPa | 0 mm | - | 0 W/m² | - |
| 1778062714 | 20° C | 85% | 1015.1 hPa | 0 mm | - | 0 W/m² | - |
| 1778062410 | 20° C | 85% | 1015.1 hPa | 0 mm | - | 0 W/m² | - |
| 1778061803 | 20.56° C | 85% | 1015 hPa | 0 mm | - | 0 W/m² | - |
* Rain latest hour (hover to see other rain measurements)
** Current wind speed in m/s (hover to see current wind gust speed)